sensor_id;sensor_type;location;lat;lon;timestamp;temperature;humidity
5429;DHT22;2737;52.386;9.980;2023-03-26T00:02:00;7.90;99.90
5429;DHT22;2737;52.386;9.980;2023-03-26T00:04:27;7.80;99.90
5429;DHT22;2737;52.386;9.980;2023-03-26T00:06:54;7.90;99.90
5429;DHT22;2737;52.386;9.980;2023-03-26T00:09:21;7.80;99.90
5429;DHT22;2737;52.386;9.980;2023-03-26T00:11:48;7.90;99.90
5429;DHT22;2737;52.386;9.980;2023-03-26T00:14:15;7.90;99.90
5429;DHT22;2737;52.386;9.980;2023-03-26T00:16:42;7.90;99.90
5429;DHT22;2737;52.386;9.980;2023-03-26T00:19:11;7.90;99.90
5429;DHT22;2737;52.386;9.980;2023-03-26T00:21:38;7.90;99.90
5429;DHT22;2737;52.386;9.980;2023-03-26T00:24:08;7.90;99.90
5429;DHT22;2737;52.386;9.980;2023-03-26T00:26:36;7.90;99.90
5429;DHT22;2737;52.386;9.980;2023-03-26T00:29:06;7.90;99.90
5429;DHT22;2737;52.386;9.980;2023-03-26T00:31:35;7.90;99.90
5429;DHT22;2737;52.386;9.980;2023-03-26T00:34:04;7.80;99.90
5429;DHT22;2737;52.386;9.980;2023-03-26T00:36:32;7.80;99.90
5429;DHT22;2737;52.386;9.980;2023-03-26T00:39:02;7.80;99.90
5429;DHT22;2737;52.386;9.980;2023-03-26T00:41:30;7.90;99.90
5429;DHT22;2737;52.386;9.980;2023-03-26T00:44:02;7.90;99.90
5429;DHT22;2737;52.386;9.980;2023-03-26T00:46:30;7.90;99.90
5429;DHT22;2737;52.386;9.980;2023-03-26T00:48:58;7.90;99.90
5429;DHT22;2737;52.386;9.980;2023-03-26T00:51:26;7.90;99.90
5429;DHT22;2737;52.386;9.980;2023-03-26T00:53:55;7.90;99.90
5429;DHT22;2737;52.386;9.980;2023-03-26T00:56:23;7.90;99.90
5429;DHT22;2737;52.386;9.980;2023-03-26T00:58:50;7.90;99.90
5429;DHT22;2737;52.386;9.980;2023-03-26T01:01:18;7.90;99.90
5429;DHT22;2737;52.386;9.980;2023-03-26T01:03:52;7.90;99.90
5429;DHT22;2737;52.386;9.980;2023-03-26T01:06:25;7.80;99.90
5429;DHT22;2737;52.386;9.980;2023-03-26T01:09:02;7.80;99.90
5429;DHT22;2737;52.386;9.980;2023-03-26T01:11:32;7.80;99.90
5429;DHT22;2737;52.386;9.980;2023-03-26T01:14:04;7.80;99.90
5429;DHT22;2737;52.386;9.980;2023-03-26T01:16:35;7.80;99.90
5429;DHT22;2737;52.386;9.980;2023-03-26T01:19:06;7.80;99.90
5429;DHT22;2737;52.386;9.980;2023-03-26T01:21:35;7.80;99.90
5429;DHT22;2737;52.386;9.980;2023-03-26T01:24:06;7.80;99.90
5429;DHT22;2737;52.386;9.980;2023-03-26T01:29:45;7.70;99.90
5429;DHT22;2737;52.386;9.980;2023-03-26T01:32:21;7.70;99.90
5429;DHT22;2737;52.386;9.980;2023-03-26T01:35:10;7.70;99.90
5429;DHT22;2737;52.386;9.980;2023-03-26T01:37:45;7.70;99.90
5429;DHT22;2737;52.386;9.980;2023-03-26T01:40:22;7.60;99.90
5429;DHT22;2737;52.386;9.980;2023-03-26T01:42:55;7.60;99.90
5429;DHT22;2737;52.386;9.980;2023-03-26T01:45:26;7.60;99.90
5429;DHT22;2737;52.386;9.980;2023-03-26T01:47:56;7.50;99.90
5429;DHT22;2737;52.386;9.980;2023-03-26T01:50:23;7.50;99.90
5429;DHT22;2737;52.386;9.980;2023-03-26T01:52:50;7.50;99.90
5429;DHT22;2737;52.386;9.980;2023-03-26T01:55:20;7.50;99.90
5429;DHT22;2737;52.386;9.980;2023-03-26T01:57:54;7.40;99.90
5429;DHT22;2737;52.386;9.980;2023-03-26T02:00:28;7.40;99.90
5429;DHT22;2737;52.386;9.980;2023-03-26T02:03:16;7.40;99.90
5429;DHT22;2737;52.386;9.980;2023-03-26T02:05:49;7.40;99.90
5429;DHT22;2737;52.386;9.980;2023-03-26T02:08:22;7.40;99.90
5429;DHT22;2737;52.386;9.980;2023-03-26T02:10:53;7.30;99.90
5429;DHT22;2737;52.386;9.980;2023-03-26T02:13:22;7.30;99.90
5429;DHT22;2737;52.386;9.980;2023-03-26T02:15:54;7.30;99.90
5429;DHT22;2737;52.386;9.980;2023-03-26T02:18:22;7.30;99.90
5429;DHT22;2737;52.386;9.980;2023-03-26T02:20:50;7.30;99.90
5429;DHT22;2737;52.386;9.980;2023-03-26T02:23:18;7.30;99.90
5429;DHT22;2737;52.386;9.980;2023-03-26T02:25:46;7.20;99.90
5429;DHT22;2737;52.386;9.980;2023-03-26T02:28:14;7.20;99.90
5429;DHT22;2737;52.386;9.980;2023-03-26T02:30:42;7.20;99.90
5429;DHT22;2737;52.386;9.980;2023-03-26T02:33:10;7.20;99.90
5429;DHT22;2737;52.386;9.980;2023-03-26T02:35:40;7.20;99.90
5429;DHT22;2737;52.386;9.980;2023-03-26T02:38:09;7.10;99.90
5429;DHT22;2737;52.386;9.980;2023-03-26T02:40:39;7.00;99.90
5429;DHT22;2737;52.386;9.980;2023-03-26T02:43:07;7.00;99.90
5429;DHT22;2737;52.386;9.980;2023-03-26T02:45:35;6.90;99.90
5429;DHT22;2737;52.386;9.980;2023-03-26T02:48:02;6.90;99.90
5429;DHT22;2737;52.386;9.980;2023-03-26T02:50:29;6.90;99.90
5429;DHT22;2737;52.386;9.980;2023-03-26T02:53:01;6.90;99.90
5429;DHT22;2737;52.386;9.980;2023-03-26T02:55:28;6.90;99.90
5429;DHT22;2737;52.386;9.980;2023-03-26T02:57:55;6.90;99.90
5429;DHT22;2737;52.386;9.980;2023-03-26T03:00:22;6.80;99.90
5429;DHT22;2737;52.386;9.980;2023-03-26T03:02:52;6.80;99.90
5429;DHT22;2737;52.386;9.980;2023-03-26T03:05:19;6.90;99.90
5429;DHT22;2737;52.386;9.980;2023-03-26T03:07:51;6.80;99.90
5429;DHT22;2737;52.386;9.980;2023-03-26T03:10:26;6.80;99.90
5429;DHT22;2737;52.386;9.980;2023-03-26T03:12:57;6.90;99.90
5429;DHT22;2737;52.386;9.980;2023-03-26T03:15:25;6.90;99.90
5429;DHT22;2737;52.386;9.980;2023-03-26T03:17:54;6.90;99.90
5429;DHT22;2737;52.386;9.980;2023-03-26T03:20:21;6.90;99.90
5429;DHT22;2737;52.386;9.980;2023-03-26T03:22:48;7.00;99.90
5429;DHT22;2737;52.386;9.980;2023-03-26T03:25:15;7.00;99.90
5429;DHT22;2737;52.386;9.980;2023-03-26T03:27:43;7.00;99.90
5429;DHT22;2737;52.386;9.980;2023-03-26T03:30:11;7.00;99.90
5429;DHT22;2737;52.386;9.980;2023-03-26T03:32:38;7.00;99.90
5429;DHT22;2737;52.386;9.980;2023-03-26T03:35:08;7.00;99.90
5429;DHT22;2737;52.386;9.980;2023-03-26T03:37:35;7.00;99.90
5429;DHT22;2737;52.386;9.980;2023-03-26T03:40:02;6.90;99.90
5429;DHT22;2737;52.386;9.980;2023-03-26T03:42:32;6.90;99.90
5429;DHT22;2737;52.386;9.980;2023-03-26T03:44:59;6.90;99.90
5429;DHT22;2737;52.386;9.980;2023-03-26T03:47:27;6.80;99.90
5429;DHT22;2737;52.386;9.980;2023-03-26T03:49:54;6.80;99.90
5429;DHT22;2737;52.386;9.980;2023-03-26T03:52:23;6.80;99.90
5429;DHT22;2737;52.386;9.980;2023-03-26T03:54:50;6.70;99.90
5429;DHT22;2737;52.386;9.980;2023-03-26T03:57:17;6.70;99.90
5429;DHT22;2737;52.386;9.980;2023-03-26T03:59:46;6.70;99.90
5429;DHT22;2737;52.386;9.980;2023-03-26T04:02:14;6.70;99.90
5429;DHT22;2737;52.386;9.980;2023-03-26T04:04:45;6.70;99.90
5429;DHT22;2737;52.386;9.980;2023-03-26T04:07:14;6.70;99.90
5429;DHT22;2737;52.386;9.980;2023-03-26T04:09:43;6.70;99.90
5429;DHT22;2737;52.386;9.980;2023-03-26T04:12:10;6.60;99.90
5429;DHT22;2737;52.386;9.980;2023-03-26T04:14:37;6.70;99.90
5429;DHT22;2737;52.386;9.980;2023-03-26T04:17:04;6.60;99.90
5429;DHT22;2737;52.386;9.980;2023-03-26T04:19:31;6.60;99.90
5429;DHT22;2737;52.386;9.980;2023-03-26T04:21:58;6.60;99.90
5429;DHT22;2737;52.386;9.980;2023-03-26T04:24:27;6.60;99.90
5429;DHT22;2737;52.386;9.980;2023-03-26T04:26:56;6.60;99.90
5429;DHT22;2737;52.386;9.980;2023-03-26T04:29:25;6.50;99.90
5429;DHT22;2737;52.386;9.980;2023-03-26T04:31:55;6.40;99.90
5429;DHT22;2737;52.386;9.980;2023-03-26T04:34:31;6.40;99.90
5429;DHT22;2737;52.386;9.980;2023-03-26T04:37:00;6.40;99.90
5429;DHT22;2737;52.386;9.980;2023-03-26T04:39:27;6.30;99.90
5429;DHT22;2737;52.386;9.980;2023-03-26T04:41:56;6.30;99.90
5429;DHT22;2737;52.386;9.980;2023-03-26T04:44:23;6.30;99.90
5429;DHT22;2737;52.386;9.980;2023-03-26T04:46:50;6.30;99.90
5429;DHT22;2737;52.386;9.980;2023-03-26T04:49:19;6.30;99.90
5429;DHT22;2737;52.386;9.980;2023-03-26T04:51:46;6.30;99.90
5429;DHT22;2737;52.386;9.980;2023-03-26T04:54:22;6.30;99.90
5429;DHT22;2737;52.386;9.980;2023-03-26T04:56:51;6.30;99.90
5429;DHT22;2737;52.386;9.980;2023-03-26T04:59:24;6.30;99.90
5429;DHT22;2737;52.386;9.980;2023-03-26T05:01:54;6.20;99.90
5429;DHT22;2737;52.386;9.980;2023-03-26T05:04:22;6.30;99.90
5429;DHT22;2737;52.386;9.980;2023-03-26T05:06:51;6.40;99.90
5429;DHT22;2737;52.386;9.980;2023-03-26T05:09:18;6.40;99.90
5429;DHT22;2737;52.386;9.980;2023-03-26T05:11:46;6.50;99.90
5429;DHT22;2737;52.386;9.980;2023-03-26T05:14:15;6.60;99.90
5429;DHT22;2737;52.386;9.980;2023-03-26T05:16:43;6.60;99.90
5429;DHT22;2737;52.386;9.980;2023-03-26T05:19:11;6.70;99.90
5429;DHT22;2737;52.386;9.980;2023-03-26T05:21:39;6.70;99.90
5429;DHT22;2737;52.386;9.980;2023-03-26T05:24:06;6.70;99.90
5429;DHT22;2737;52.386;9.980;2023-03-26T05:26:33;6.80;99.90
5429;DHT22;2737;52.386;9.980;2023-03-26T05:29:01;6.80;99.90
5429;DHT22;2737;52.386;9.980;2023-03-26T05:31:29;6.80;99.90
5429;DHT22;2737;52.386;9.980;2023-03-26T05:33:58;6.90;99.90
5429;DHT22;2737;52.386;9.980;2023-03-26T05:36:26;6.90;99.90
5429;DHT22;2737;52.386;9.980;2023-03-26T05:38:53;6.80;99.90
5429;DHT22;2737;52.386;9.980;2023-03-26T05:41:20;6.80;99.90
5429;DHT22;2737;52.386;9.980;2023-03-26T05:43:47;6.80;99.90
5429;DHT22;2737;52.386;9.980;2023-03-26T05:46:16;6.80;99.90
5429;DHT22;2737;52.386;9.980;2023-03-26T05:48:45;6.80;99.90
5429;DHT22;2737;52.386;9.980;2023-03-26T05:51:13;6.80;99.90
5429;DHT22;2737;52.386;9.980;2023-03-26T05:53:41;6.90;99.90
5429;DHT22;2737;52.386;9.980;2023-03-26T05:56:08;6.90;99.90
5429;DHT22;2737;52.386;9.980;2023-03-26T05:58:36;7.00;99.90
5429;DHT22;2737;52.386;9.980;2023-03-26T06:01:05;7.00;99.90
5429;DHT22;2737;52.386;9.980;2023-03-26T06:03:34;6.90;99.90
5429;DHT22;2737;52.386;9.980;2023-03-26T06:06:01;6.90;99.90
5429;DHT22;2737;52.386;9.980;2023-03-26T06:08:30;6.90;99.90
5429;DHT22;2737;52.386;9.980;2023-03-26T06:10:59;7.00;99.90
5429;DHT22;2737;52.386;9.980;2023-03-26T06:13:26;7.00;99.90
5429;DHT22;2737;52.386;9.980;2023-03-26T06:15:53;7.00;99.90
5429;DHT22;2737;52.386;9.980;2023-03-26T06:18:20;7.10;99.90
5429;DHT22;2737;52.386;9.980;2023-03-26T06:20:47;7.10;99.90
5429;DHT22;2737;52.386;9.980;2023-03-26T06:23:15;7.20;99.90
5429;DHT22;2737;52.386;9.980;2023-03-26T06:25:44;7.20;99.90
5429;DHT22;2737;52.386;9.980;2023-03-26T06:28:12;7.20;99.90
5429;DHT22;2737;52.386;9.980;2023-03-26T06:30:40;7.20;99.90
5429;DHT22;2737;52.386;9.980;2023-03-26T06:33:07;7.20;99.90
5429;DHT22;2737;52.386;9.980;2023-03-26T06:35:34;7.20;99.90
5429;DHT22;2737;52.386;9.980;2023-03-26T06:38:01;7.30;99.90
5429;DHT22;2737;52.386;9.980;2023-03-26T06:40:28;7.30;99.90
5429;DHT22;2737;52.386;9.980;2023-03-26T06:42:57;7.30;99.90
5429;DHT22;2737;52.386;9.980;2023-03-26T06:45:25;7.30;99.90
5429;DHT22;2737;52.386;9.980;2023-03-26T06:47:52;7.30;99.90
5429;DHT22;2737;52.386;9.980;2023-03-26T06:50:20;7.40;99.90
5429;DHT22;2737;52.386;9.980;2023-03-26T06:52:47;7.40;99.90
5429;DHT22;2737;52.386;9.980;2023-03-26T06:55:15;7.40;99.90
5429;DHT22;2737;52.386;9.980;2023-03-26T06:57:42;7.40;99.90
5429;DHT22;2737;52.386;9.980;2023-03-26T07:00:13;7.40;99.90
5429;DHT22;2737;52.386;9.980;2023-03-26T07:02:40;7.50;99.90
5429;DHT22;2737;52.386;9.980;2023-03-26T07:05:10;7.50;99.90
5429;DHT22;2737;52.386;9.980;2023-03-26T07:07:37;7.50;99.90
5429;DHT22;2737;52.386;9.980;2023-03-26T07:10:05;7.60;99.90
5429;DHT22;2737;52.386;9.980;2023-03-26T07:12:32;7.60;99.90
5429;DHT22;2737;52.386;9.980;2023-03-26T07:15:00;7.60;99.90
5429;DHT22;2737;52.386;9.980;2023-03-26T07:17:29;7.60;99.90
5429;DHT22;2737;52.386;9.980;2023-03-26T07:19:56;7.70;99.90
5429;DHT22;2737;52.386;9.980;2023-03-26T07:22:23;7.70;99.90
5429;DHT22;2737;52.386;9.980;2023-03-26T07:24:51;7.80;99.90
5429;DHT22;2737;52.386;9.980;2023-03-26T07:27:31;7.80;99.90
5429;DHT22;2737;52.386;9.980;2023-03-26T07:30:04;7.80;99.90
5429;DHT22;2737;52.386;9.980;2023-03-26T07:32:37;7.80;99.90
5429;DHT22;2737;52.386;9.980;2023-03-26T07:35:12;8.00;99.90
5429;DHT22;2737;52.386;9.980;2023-03-26T07:37:47;8.00;99.90
5429;DHT22;2737;52.386;9.980;2023-03-26T07:40:26;8.10;99.90
5429;DHT22;2737;52.386;9.980;2023-03-26T07:43:04;8.10;99.90
5429;DHT22;2737;52.386;9.980;2023-03-26T07:45:38;8.20;99.90
5429;DHT22;2737;52.386;9.980;2023-03-26T07:48:11;8.30;99.90
5429;DHT22;2737;52.386;9.980;2023-03-26T07:50:42;8.50;99.90
5429;DHT22;2737;52.386;9.980;2023-03-26T07:53:10;8.70;99.90
5429;DHT22;2737;52.386;9.980;2023-03-26T07:55:44;8.90;99.90
5429;DHT22;2737;52.386;9.980;2023-03-26T07:58:24;9.00;99.90
5429;DHT22;2737;52.386;9.980;2023-03-26T08:01:02;8.90;99.90
5429;DHT22;2737;52.386;9.980;2023-03-26T08:03:48;8.90;99.90
5429;DHT22;2737;52.386;9.980;2023-03-26T08:06:22;8.90;99.90
5429;DHT22;2737;52.386;9.980;2023-03-26T08:08:59;8.80;99.90
5429;DHT22;2737;52.386;9.980;2023-03-26T08:11:33;8.70;99.90
5429;DHT22;2737;52.386;9.980;2023-03-26T08:14:16;8.70;99.90
5429;DHT22;2737;52.386;9.980;2023-03-26T08:16:50;8.70;99.90
5429;DHT22;2737;52.386;9.980;2023-03-26T08:19:47;8.80;99.90
5429;DHT22;2737;52.386;9.980;2023-03-26T08:22:18;8.80;99.90
5429;DHT22;2737;52.386;9.980;2023-03-26T08:25:09;8.80;99.90
5429;DHT22;2737;52.386;9.980;2023-03-26T08:27:50;8.80;99.90
5429;DHT22;2737;52.386;9.980;2023-03-26T08:30:24;8.70;99.90
5429;DHT22;2737;52.386;9.980;2023-03-26T08:32:54;8.90;99.90
5429;DHT22;2737;52.386;9.980;2023-03-26T08:35:24;9.00;99.90
5429;DHT22;2737;52.386;9.980;2023-03-26T08:37:53;9.20;99.90
5429;DHT22;2737;52.386;9.980;2023-03-26T08:43:49;9.00;99.90
5429;DHT22;2737;52.386;9.980;2023-03-26T08:46:46;9.10;99.90
5429;DHT22;2737;52.386;9.980;2023-03-26T08:49:50;9.10;99.90
5429;DHT22;2737;52.386;9.980;2023-03-26T08:52:46;9.10;99.90
5429;DHT22;2737;52.386;9.980;2023-03-26T08:55:48;9.20;99.90
5429;DHT22;2737;52.386;9.980;2023-03-26T09:11:21;9.20;99.90
5429;DHT22;2737;52.386;9.980;2023-03-26T09:17:33;9.10;99.90
5429;DHT22;2737;52.386;9.980;2023-03-26T09:20:47;9.10;99.90
5429;DHT22;2737;52.386;9.980;2023-03-26T09:26:26;9.10;99.90
5429;DHT22;2737;52.386;9.980;2023-03-26T09:32:26;9.20;99.90
5429;DHT22;2737;52.386;9.980;2023-03-26T09:35:13;9.30;99.90
5429;DHT22;2737;52.386;9.980;2023-03-26T09:37:55;9.20;99.90
5429;DHT22;2737;52.386;9.980;2023-03-26T09:40:34;9.20;99.90
5429;DHT22;2737;52.386;9.980;2023-03-26T09:43:28;8.80;99.90
5429;DHT22;2737;52.386;9.980;2023-03-26T09:46:11;8.70;99.90
5429;DHT22;2737;52.386;9.980;2023-03-26T09:49:00;8.90;99.90
5429;DHT22;2737;52.386;9.980;2023-03-26T09:51:41;9.00;99.90
5429;DHT22;2737;52.386;9.980;2023-03-26T09:54:32;8.90;99.90
5429;DHT22;2737;52.386;9.980;2023-03-26T09:57:09;9.00;99.90
5429;DHT22;2737;52.386;9.980;2023-03-26T09:59:56;9.20;99.90
5429;DHT22;2737;52.386;9.980;2023-03-26T10:02:44;9.40;99.90
5429;DHT22;2737;52.386;9.980;2023-03-26T10:05:29;9.40;99.90
5429;DHT22;2737;52.386;9.980;2023-03-26T10:08:05;9.30;99.90
5429;DHT22;2737;52.386;9.980;2023-03-26T10:10:44;9.10;99.90
5429;DHT22;2737;52.386;9.980;2023-03-26T10:13:24;9.10;99.90
5429;DHT22;2737;52.386;9.980;2023-03-26T10:16:04;9.00;99.90
5429;DHT22;2737;52.386;9.980;2023-03-26T10:18:46;9.30;99.90
5429;DHT22;2737;52.386;9.980;2023-03-26T10:21:20;9.40;99.90
5429;DHT22;2737;52.386;9.980;2023-03-26T10:24:00;9.60;99.90
5429;DHT22;2737;52.386;9.980;2023-03-26T10:26:45;9.50;99.90
5429;DHT22;2737;52.386;9.980;2023-03-26T10:29:24;9.70;99.90
5429;DHT22;2737;52.386;9.980;2023-03-26T10:32:05;9.70;99.90
5429;DHT22;2737;52.386;9.980;2023-03-26T10:34:48;9.80;99.90
5429;DHT22;2737;52.386;9.980;2023-03-26T10:37:25;9.90;99.90
5429;DHT22;2737;52.386;9.980;2023-03-26T10:40:08;10.00;99.90
5429;DHT22;2737;52.386;9.980;2023-03-26T10:43:09;9.80;99.90
5429;DHT22;2737;52.386;9.980;2023-03-26T10:45:52;10.10;99.90
5429;DHT22;2737;52.386;9.980;2023-03-26T10:48:29;10.10;99.90
5429;DHT22;2737;52.386;9.980;2023-03-26T10:51:31;10.00;99.90
5429;DHT22;2737;52.386;9.980;2023-03-26T10:54:04;10.00;99.90
5429;DHT22;2737;52.386;9.980;2023-03-26T10:56:35;10.00;99.90
5429;DHT22;2737;52.386;9.980;2023-03-26T10:59:05;10.10;99.90
5429;DHT22;2737;52.386;9.980;2023-03-26T11:01:40;10.10;99.90
5429;DHT22;2737;52.386;9.980;2023-03-26T11:04:19;10.10;99.90
5429;DHT22;2737;52.386;9.980;2023-03-26T11:06:54;10.10;99.90
5429;DHT22;2737;52.386;9.980;2023-03-26T11:09:32;10.10;99.90
5429;DHT22;2737;52.386;9.980;2023-03-26T11:12:09;9.90;99.90
5429;DHT22;2737;52.386;9.980;2023-03-26T11:14:44;9.90;99.90
5429;DHT22;2737;52.386;9.980;2023-03-26T11:17:19;10.00;99.90
5429;DHT22;2737;52.386;9.980;2023-03-26T11:19:53;10.20;99.90
5429;DHT22;2737;52.386;9.980;2023-03-26T11:22:30;10.30;99.90
5429;DHT22;2737;52.386;9.980;2023-03-26T11:28:00;10.10;99.90
5429;DHT22;2737;52.386;9.980;2023-03-26T11:30:37;10.20;99.90
5429;DHT22;2737;52.386;9.980;2023-03-26T11:33:09;10.20;99.90
5429;DHT22;2737;52.386;9.980;2023-03-26T11:35:41;10.50;99.90
5429;DHT22;2737;52.386;9.980;2023-03-26T11:38:15;10.50;99.90
5429;DHT22;2737;52.386;9.980;2023-03-26T11:40:45;10.70;99.90
5429;DHT22;2737;52.386;9.980;2023-03-26T11:43:20;10.90;99.90
5429;DHT22;2737;52.386;9.980;2023-03-26T11:45:49;10.60;99.90
5429;DHT22;2737;52.386;9.980;2023-03-26T11:48:20;10.70;99.90
5429;DHT22;2737;52.386;9.980;2023-03-26T11:50:54;10.80;99.90
5429;DHT22;2737;52.386;9.980;2023-03-26T11:53:27;10.80;99.90
5429;DHT22;2737;52.386;9.980;2023-03-26T11:56:00;10.70;99.90
5429;DHT22;2737;52.386;9.980;2023-03-26T11:58:31;10.60;99.90
5429;DHT22;2737;52.386;9.980;2023-03-26T12:01:03;10.80;99.90
5429;DHT22;2737;52.386;9.980;2023-03-26T12:03:31;10.90;99.90
5429;DHT22;2737;52.386;9.980;2023-03-26T12:06:00;10.90;99.90
5429;DHT22;2737;52.386;9.980;2023-03-26T12:08:33;11.00;99.90
5429;DHT22;2737;52.386;9.980;2023-03-26T12:11:05;10.70;99.90
5429;DHT22;2737;52.386;9.980;2023-03-26T12:13:36;10.50;99.90
5429;DHT22;2737;52.386;9.980;2023-03-26T12:16:08;10.40;99.90
5429;DHT22;2737;52.386;9.980;2023-03-26T12:18:37;10.40;99.90
5429;DHT22;2737;52.386;9.980;2023-03-26T12:21:10;10.60;99.90
5429;DHT22;2737;52.386;9.980;2023-03-26T12:23:54;10.40;99.90
5429;DHT22;2737;52.386;9.980;2023-03-26T12:26:30;10.30;99.90
5429;DHT22;2737;52.386;9.980;2023-03-26T12:29:05;10.20;99.90
5429;DHT22;2737;52.386;9.980;2023-03-26T12:31:50;10.40;99.90
5429;DHT22;2737;52.386;9.980;2023-03-26T12:34:19;10.30;99.90
5429;DHT22;2737;52.386;9.980;2023-03-26T12:36:50;10.50;99.90
5429;DHT22;2737;52.386;9.980;2023-03-26T12:39:30;10.50;99.90
5429;DHT22;2737;52.386;9.980;2023-03-26T12:41:59;10.70;99.90
5429;DHT22;2737;52.386;9.980;2023-03-26T12:44:29;10.80;99.90
5429;DHT22;2737;52.386;9.980;2023-03-26T12:47:24;11.00;99.90
5429;DHT22;2737;52.386;9.980;2023-03-26T12:49:52;10.90;99.90
5429;DHT22;2737;52.386;9.980;2023-03-26T12:52:34;10.70;99.90
5429;DHT22;2737;52.386;9.980;2023-03-26T12:55:16;10.70;99.90
5429;DHT22;2737;52.386;9.980;2023-03-26T12:57:50;10.80;99.90
5429;DHT22;2737;52.386;9.980;2023-03-26T13:00:39;10.70;99.90
5429;DHT22;2737;52.386;9.980;2023-03-26T13:03:24;10.70;99.90
5429;DHT22;2737;52.386;9.980;2023-03-26T13:06:07;10.90;99.90
5429;DHT22;2737;52.386;9.980;2023-03-26T13:08:55;10.80;99.90
5429;DHT22;2737;52.386;9.980;2023-03-26T13:11:31;10.90;99.90
5429;DHT22;2737;52.386;9.980;2023-03-26T13:14:15;10.80;99.90
5429;DHT22;2737;52.386;9.980;2023-03-26T13:16:50;10.80;99.90
5429;DHT22;2737;52.386;9.980;2023-03-26T13:19:24;10.90;99.90
5429;DHT22;2737;52.386;9.980;2023-03-26T13:22:03;10.60;99.90
5429;DHT22;2737;52.386;9.980;2023-03-26T13:24:44;10.70;99.90
5429;DHT22;2737;52.386;9.980;2023-03-26T13:27:23;10.70;99.90
5429;DHT22;2737;52.386;9.980;2023-03-26T13:29:57;10.50;99.90
5429;DHT22;2737;52.386;9.980;2023-03-26T13:32:32;10.10;99.90
5429;DHT22;2737;52.386;9.980;2023-03-26T13:35:11;10.20;99.90
5429;DHT22;2737;52.386;9.980;2023-03-26T13:37:47;10.10;99.90
5429;DHT22;2737;52.386;9.980;2023-03-26T13:40:25;10.10;99.90
5429;DHT22;2737;52.386;9.980;2023-03-26T13:43:10;10.10;99.90
5429;DHT22;2737;52.386;9.980;2023-03-26T13:45:52;10.20;99.90
5429;DHT22;2737;52.386;9.980;2023-03-26T13:48:23;10.00;99.90
5429;DHT22;2737;52.386;9.980;2023-03-26T13:50:58;10.10;99.90
5429;DHT22;2737;52.386;9.980;2023-03-26T13:53:32;10.30;99.90
5429;DHT22;2737;52.386;9.980;2023-03-26T13:56:02;10.50;99.90
5429;DHT22;2737;52.386;9.980;2023-03-26T13:58:34;10.30;99.90
5429;DHT22;2737;52.386;9.980;2023-03-26T14:01:06;10.30;99.90
5429;DHT22;2737;52.386;9.980;2023-03-26T14:03:42;10.00;99.90
5429;DHT22;2737;52.386;9.980;2023-03-26T14:06:22;10.20;99.90
5429;DHT22;2737;52.386;9.980;2023-03-26T14:08:54;9.90;99.90
5429;DHT22;2737;52.386;9.980;2023-03-26T14:11:38;10.00;99.90
5429;DHT22;2737;52.386;9.980;2023-03-26T14:14:11;10.10;99.90
5429;DHT22;2737;52.386;9.980;2023-03-26T14:16:44;10.00;99.90
5429;DHT22;2737;52.386;9.980;2023-03-26T14:22:15;10.00;99.90
5429;DHT22;2737;52.386;9.980;2023-03-26T14:24:53;9.80;99.90
5429;DHT22;2737;52.386;9.980;2023-03-26T14:27:36;9.70;99.90
5429;DHT22;2737;52.386;9.980;2023-03-26T14:33:32;9.70;99.90
5429;DHT22;2737;52.386;9.980;2023-03-26T14:36:09;9.70;99.90
5429;DHT22;2737;52.386;9.980;2023-03-26T14:39:03;9.60;99.90
5429;DHT22;2737;52.386;9.980;2023-03-26T14:41:40;9.50;99.90
5429;DHT22;2737;52.386;9.980;2023-03-26T14:47:15;9.70;99.90
5429;DHT22;2737;52.386;9.980;2023-03-26T14:52:46;9.70;99.90
5429;DHT22;2737;52.386;9.980;2023-03-26T14:55:19;9.60;99.90
5429;DHT22;2737;52.386;9.980;2023-03-26T15:01:18;9.60;99.90
5429;DHT22;2737;52.386;9.980;2023-03-26T15:07:40;9.50;99.90
5429;DHT22;2737;52.386;9.980;2023-03-26T15:10:45;9.40;99.90
5429;DHT22;2737;52.386;9.980;2023-03-26T15:16:57;9.30;99.90
5429;DHT22;2737;52.386;9.980;2023-03-26T15:23:01;9.20;99.90
5429;DHT22;2737;52.386;9.980;2023-03-26T15:25:58;9.20;99.90
5429;DHT22;2737;52.386;9.980;2023-03-26T15:31:58;9.10;99.90
5429;DHT22;2737;52.386;9.980;2023-03-26T15:34:56;9.00;99.90
5429;DHT22;2737;52.386;9.980;2023-03-26T15:37:55;9.00;99.90
5429;DHT22;2737;52.386;9.980;2023-03-26T15:40:50;8.90;99.90
5429;DHT22;2737;52.386;9.980;2023-03-26T15:43:22;8.80;99.90
5429;DHT22;2737;52.386;9.980;2023-03-26T15:46:08;8.90;99.90
5429;DHT22;2737;52.386;9.980;2023-03-26T15:49:01;8.90;99.90
5429;DHT22;2737;52.386;9.980;2023-03-26T15:51:47;8.90;99.90
5429;DHT22;2737;52.386;9.980;2023-03-26T15:54:21;9.00;99.90
5429;DHT22;2737;52.386;9.980;2023-03-26T15:57:01;9.00;99.90
5429;DHT22;2737;52.386;9.980;2023-03-26T15:59:41;8.90;99.90
5429;DHT22;2737;52.386;9.980;2023-03-26T16:02:20;8.90;99.90
5429;DHT22;2737;52.386;9.980;2023-03-26T16:04:53;8.80;99.90
5429;DHT22;2737;52.386;9.980;2023-03-26T16:07:46;8.80;99.90
5429;DHT22;2737;52.386;9.980;2023-03-26T16:10:20;8.80;99.90
5429;DHT22;2737;52.386;9.980;2023-03-26T16:12:57;8.80;99.90
5429;DHT22;2737;52.386;9.980;2023-03-26T16:15:40;8.70;99.90
5429;DHT22;2737;52.386;9.980;2023-03-26T16:18:32;8.70;99.90
5429;DHT22;2737;52.386;9.980;2023-03-26T16:21:34;8.60;99.90
5429;DHT22;2737;52.386;9.980;2023-03-26T16:24:18;8.70;99.90
5429;DHT22;2737;52.386;9.980;2023-03-26T16:26:59;8.70;99.90
5429;DHT22;2737;52.386;9.980;2023-03-26T16:29:28;8.70;99.90
5429;DHT22;2737;52.386;9.980;2023-03-26T16:32:14;8.70;99.90
5429;DHT22;2737;52.386;9.980;2023-03-26T16:34:48;8.60;99.90
5429;DHT22;2737;52.386;9.980;2023-03-26T16:37:50;8.60;99.90
5429;DHT22;2737;52.386;9.980;2023-03-26T16:40:34;8.50;99.90
5429;DHT22;2737;52.386;9.980;2023-03-26T16:43:10;8.50;99.90
5429;DHT22;2737;52.386;9.980;2023-03-26T16:45:47;8.50;99.90
5429;DHT22;2737;52.386;9.980;2023-03-26T16:48:23;8.40;99.90
5429;DHT22;2737;52.386;9.980;2023-03-26T16:50:56;8.40;99.90
5429;DHT22;2737;52.386;9.980;2023-03-26T16:53:37;8.30;99.90
5429;DHT22;2737;52.386;9.980;2023-03-26T16:56:15;8.20;99.90
5429;DHT22;2737;52.386;9.980;2023-03-26T16:58:54;8.20;99.90
5429;DHT22;2737;52.386;9.980;2023-03-26T17:01:32;8.20;99.90
5429;DHT22;2737;52.386;9.980;2023-03-26T17:04:04;8.20;99.90
5429;DHT22;2737;52.386;9.980;2023-03-26T17:06:54;8.10;99.90
5429;DHT22;2737;52.386;9.980;2023-03-26T17:09:34;8.20;99.90
5429;DHT22;2737;52.386;9.980;2023-03-26T17:12:12;8.10;99.90
5429;DHT22;2737;52.386;9.980;2023-03-26T17:14:53;8.10;99.90
5429;DHT22;2737;52.386;9.980;2023-03-26T17:17:33;8.10;99.90
5429;DHT22;2737;52.386;9.980;2023-03-26T17:20:07;8.20;99.90
5429;DHT22;2737;52.386;9.980;2023-03-26T17:22:40;8.10;99.90
5429;DHT22;2737;52.386;9.980;2023-03-26T17:25:21;8.10;99.90
5429;DHT22;2737;52.386;9.980;2023-03-26T17:27:54;8.00;99.90
5429;DHT22;2737;52.386;9.980;2023-03-26T17:31:01;7.90;99.90
5429;DHT22;2737;52.386;9.980;2023-03-26T17:33:31;7.90;99.90
5429;DHT22;2737;52.386;9.980;2023-03-26T17:36:21;7.90;99.90
5429;DHT22;2737;52.386;9.980;2023-03-26T17:39:01;7.90;99.90
5429;DHT22;2737;52.386;9.980;2023-03-26T17:44:45;7.90;99.90
5429;DHT22;2737;52.386;9.980;2023-03-26T17:47:28;7.80;99.90
5429;DHT22;2737;52.386;9.980;2023-03-26T17:50:03;7.80;99.90
5429;DHT22;2737;52.386;9.980;2023-03-26T17:52:44;7.80;99.90
5429;DHT22;2737;52.386;9.980;2023-03-26T17:55:16;7.80;99.90
5429;DHT22;2737;52.386;9.980;2023-03-26T17:57:47;7.80;99.90
5429;DHT22;2737;52.386;9.980;2023-03-26T18:00:20;7.70;99.90
5429;DHT22;2737;52.386;9.980;2023-03-26T18:02:53;7.70;99.90
5429;DHT22;2737;52.386;9.980;2023-03-26T18:05:25;7.60;99.90
5429;DHT22;2737;52.386;9.980;2023-03-26T18:08:31;7.60;99.90